Time;durP1;ratioP1;P1;durP2;ratioP2;P2;SDS_P1;SDS_P2;PMS_P1;PMS_P2;Temp;Humidity;BMP_temperature;BMP_pressure;BME280_temperature;BME280_humidity;BME280_pressure;Samples;Min_cycle;Max_cycle;Signal;HPM_P1;HPM_P2
2022/11/03 00:01:21;;;;;;;12.43;2.88;;;;;;;18.66;33.81;99986.38;3135492;28;20147;-66
2022/11/03 00:02:53;;;;;;;10.98;3.05;;;;;;;18.68;33.79;99989.75;3128100;28;20071;-67
2022/11/03 00:04:25;;;;;;;11.90;2.63;;;;;;;18.73;33.62;99985.00;3132900;28;20658;-67
2022/11/03 00:06:05;;;;;;;8.90;2.28;;;;;;;18.80;33.44;99980.09;3132705;28;20059;-66
2022/11/03 00:07:37;;;;;;;8.85;3.45;;;;;;;18.85;33.45;99983.22;3127236;28;20056;-66
2022/11/03 00:09:11;;;;;;;9.82;2.50;;;;;;;18.88;33.42;99983.00;3132679;28;20052;-67
2022/11/03 00:10:42;;;;;;;11.02;2.17;;;;;;;18.90;33.35;99990.78;3131370;28;20587;-67
2022/11/03 00:12:46;;;;;;;12.02;2.65;;;;;;;18.96;33.16;99992.94;3126969;28;20045;-67
2022/11/03 00:14:19;;;;;;;8.55;2.58;;;;;;;18.94;33.46;99992.22;3129903;28;20052;-66
2022/11/03 00:15:51;;;;;;;18.90;4.00;;;;;;;18.97;33.39;99990.19;3137743;28;20262;-66
2022/11/03 00:17:23;;;;;;;8.15;2.28;;;;;;;19.01;33.35;99988.16;3126747;28;20061;-66
2022/11/03 00:18:55;;;;;;;12.60;2.78;;;;;;;19.03;33.33;99994.16;3126777;28;20064;-66
2022/11/03 00:20:27;;;;;;;8.45;2.25;;;;;;;19.03;32.98;99992.34;3126688;28;20057;-66
2022/11/03 00:21:59;;;;;;;11.38;3.35;;;;;;;19.04;33.20;99987.91;3126994;28;20243;-66
2022/11/03 00:23:31;;;;;;;13.20;2.13;;;;;;;19.06;33.18;99996.56;3126231;28;20114;-66
2022/11/03 00:25:04;;;;;;;8.47;2.70;;;;;;;19.04;32.97;99987.91;3130454;28;20049;-67
2022/11/03 00:26:36;;;;;;;8.07;2.75;;;;;;;19.01;33.24;99980.22;3126051;28;20318;-66
2022/11/03 00:28:09;;;;;;;10.43;2.55;;;;;;;19.01;33.06;99977.59;3126022;28;20286;-67
2022/11/03 00:29:41;;;;;;;7.53;2.75;;;;;;;19.09;33.18;99991.88;3125739;28;20114;-66
2022/11/03 00:31:15;;;;;;;5.03;2.13;;;;;;;19.01;33.30;99978.44;3125853;28;20320;-67
2022/11/03 00:32:47;;;;;;;16.52;2.50;;;;;;;19.12;33.26;99997.88;3135677;28;20052;-67
2022/11/03 00:34:19;;;;;;;14.05;3.38;;;;;;;19.13;33.11;99991.63;3126522;28;20049;-66
2022/11/03 00:35:49;;;;;;;9.95;2.42;;;;;;;19.14;32.92;99999.47;3121624;28;20068;-67
2022/11/03 00:37:21;;;;;;;5.60;2.20;;;;;;;19.18;32.99;99994.78;3121711;28;20150;-66
2022/11/03 00:38:54;;;;;;;14.20;2.65;;;;;;;19.19;33.10;99993.81;3125706;28;20049;-66
2022/11/03 00:40:26;;;;;;;13.15;2.63;;;;;;;19.21;32.94;99995.38;3125807;28;20100;-67
2022/11/03 00:41:58;;;;;;;10.00;2.65;;;;;;;19.20;33.02;99993.69;3121625;28;20587;-66
2022/11/03 00:43:33;;;;;;;15.43;2.78;;;;;;;19.23;32.84;99993.47;3121626;28;20606;-67
2022/11/03 00:45:05;;;;;;;9.85;2.55;;;;;;;19.27;33.01;99991.41;3122624;28;20052;-67
2022/11/03 00:46:37;;;;;;;10.25;2.80;;;;;;;19.29;32.89;99992.97;3130493;28;20056;-67
2022/11/03 00:49:59;;;;;;;10.77;2.75;;;;;;;19.30;32.64;99994.63;3121399;28;20045;-67
2022/11/03 00:51:33;;;;;;;12.43;2.35;;;;;;;19.34;32.63;99984.66;3121455;28;20063;-67
2022/11/03 00:53:04;;;;;;;11.38;2.85;;;;;;;19.35;32.68;99993.47;3121569;28;20068;-67
2022/11/03 00:54:36;;;;;;;10.10;2.72;;;;;;;19.38;32.59;99990.56;3121661;28;20049;-66
2022/11/03 00:56:11;;;;;;;6.40;2.13;;;;;;;19.40;32.56;99981.53;3121855;28;20140;-66
2022/11/03 00:57:43;;;;;;;11.45;3.17;;;;;;;19.43;32.54;99983.97;3122245;28;20110;-67
2022/11/03 00:59:16;;;;;;;7.22;2.33;;;;;;;19.46;32.43;99988.16;3124118;28;20846;-67
2022/11/03 01:00:48;;;;;;;;;;;;;;;19.37;32.46;99980.94;3129079;28;20091;-66
2022/11/03 01:02:20;;;;;;;8.88;2.58;;;;;;;19.35;32.57;99980.25;3130460;28;20509;-67
2022/11/03 01:07:33;;;;;;;7.82;2.50;;;;;;;19.32;32.76;99983.97;3125084;28;20053;-67
2022/11/03 01:09:05;;;;;;;14.85;2.30;;;;;;;19.31;32.53;99983.13;3130596;28;20053;-67
2022/11/03 01:11:42;;;;;;;13.75;2.22;;;;;;;19.28;32.72;99975.44;3124363;28;20051;-68
2022/11/03 01:12:30;;;;;;;13.25;3.03;;;;;;;19.29;32.68;99981.56;3124849;28;20515;-67
2022/11/03 01:14:01;;;;;;;9.82;2.30;;;;;;;19.32;32.56;99978.69;3125673;28;20049;-68
2022/11/03 01:15:35;;;;;;;9.35;2.30;;;;;;;19.32;32.62;99979.53;3136878;28;20075;-68
2022/11/03 01:17:08;;;;;;;12.20;2.50;;;;;;;19.30;32.70;99978.78;3124431;28;20445;-68
2022/11/03 01:18:40;;;;;;;;;;;;;;;19.22;32.67;99980.34;3124661;28;20057;-67
2022/11/03 01:20:12;;;;;;;9.38;2.72;;;;;;;19.19;32.70;99975.31;3128206;28;19924;-68
2022/11/03 01:21:43;;;;;;;7.25;2.67;;;;;;;19.21;32.72;99979.53;3128849;28;20568;-67
2022/11/03 01:23:15;;;;;;;7.38;2.30;;;;;;;19.19;32.65;99970.88;3124302;28;20148;-67
2022/11/03 01:24:47;;;;;;;12.27;2.63;;;;;;;19.23;32.67;99976.78;3124649;28;20053;-68
2022/11/03 01:26:18;;;;;;;8.67;2.10;;;;;;;19.22;32.61;99973.28;3124438;28;20049;-68
2022/11/03 01:27:51;;;;;;;10.82;2.67;;;;;;;19.21;32.56;99976.03;3124420;28;21127;-67
2022/11/03 01:29:22;;;;;;;9.85;2.88;;;;;;;19.19;32.75;99975.31;3124470;28;20057;-68
2022/11/03 01:30:56;;;;;;;13.80;3.25;;;;;;;19.18;32.86;99981.56;3133800;28;20501;-68
2022/11/03 01:32:28;;;;;;;14.25;2.63;;;;;;;19.14;32.78;99978.34;3128085;28;20130;-68
2022/11/03 01:34:03;;;;;;;10.50;2.67;;;;;;;19.13;32.81;99981.06;3124265;28;20521;-67
2022/11/03 01:35:35;;;;;;;6.13;2.03;;;;;;;19.10;32.75;99977.72;3124191;28;20060;-68
2022/11/03 01:37:07;;;;;;;8.93;2.13;;;;;;;19.10;33.00;99976.88;3124221;28;20055;-68
2022/11/03 01:38:39;;;;;;;9.43;2.50;;;;;;;19.06;32.92;99986.00;3126081;28;20147;-68
2022/11/03 01:40:12;;;;;;;12.48;2.15;;;;;;;19.07;32.88;99977.94;3130511;28;20358;-68
2022/11/03 01:41:46;;;;;;;13.68;2.33;;;;;;;19.07;32.83;99983.22;3124285;28;20055;-68
2022/11/03 01:43:18;;;;;;;6.20;2.70;;;;;;;19.07;32.83;99983.22;3123866;28;20059;-68
2022/11/03 01:44:50;;;;;;;9.93;2.58;;;;;;;19.07;32.86;99982.41;3129526;28;20466;-67
2022/11/03 01:46:25;;;;;;;15.90;2.13;;;;;;;19.06;32.67;99976.28;3134118;28;20052;-67
2022/11/03 01:47:57;;;;;;;11.40;2.92;;;;;;;19.10;32.66;99984.78;3124637;28;20781;-68
2022/11/03 01:49:34;;;;;;;9.93;2.42;;;;;;;19.10;32.84;99984.78;3123892;28;20605;-68
2022/11/03 01:51:08;;;;;;;5.93;2.05;;;;;;;19.07;32.80;99985.03;3123780;28;20053;-67
2022/11/03 01:52:42;;;;;;;;;;;;;;;18.96;33.26;99985.03;3125157;28;20573;-67
2022/11/03 01:54:16;;;;;;;;;;;;;;;18.87;33.20;99986.56;3126665;28;19947;-67
2022/11/03 01:55:49;;;;;;;;;;;;;;;18.80;33.48;99996.75;3125210;28;20408;-67
2022/11/03 01:57:25;;;;;;;;;;;;;;;18.78;33.20;99992.53;3130563;28;19931;-66
2022/11/03 01:58:57;;;;;;;;;;;;;;;18.73;33.51;99984.13;3131432;28;19982;-67
2022/11/03 02:00:29;;;;;;;;;;;;;;;18.74;33.35;99988.47;3125108;28;20868;-67
2022/11/03 02:02:02;;;;;;;;;;;;;;;18.73;33.44;99990.28;3133860;28;19948;-68
2022/11/03 02:03:36;;;;;;;;;;;;;;;18.69;33.62;99991.41;3125435;28;19924;-68
2022/11/03 02:05:09;;;;;;;;;;;;;;;18.69;33.51;99993.22;3125119;28;19925;-68
2022/11/03 02:06:41;;;;;;;;;;;;;;;18.65;33.49;99990.81;3124376;28;19929;-67
2022/11/03 02:08:15;;;;;;;;;;;;;;;18.67;33.64;99989.88;3128630;28;20264;-67
2022/11/03 02:09:47;;;;;;;;;;;;;;;18.64;33.58;99991.78;3125327;28;20423;-67
2022/11/03 02:13:12;;;;;;;;;;;;;;;18.63;33.35;99990.13;3124287;28;20617;-67
2022/11/03 02:14:45;;;;;;;;;;;;;;;18.65;33.45;99987.34;3131111;28;19977;-67
2022/11/03 02:16:17;;;;;;;;;;;;;;;18.68;33.37;99992.38;3133809;28;19924;-67
2022/11/03 02:17:52;;;;;;;;;;;;;;;18.66;33.48;99994.28;3133532;28;19978;-67
2022/11/03 02:19:28;;;;;;;;;;;;;;;18.65;33.48;99993.44;3123482;28;19931;-67
2022/11/03 02:21:05;;;;;;;;;;;;;;;18.66;33.30;99989.00;3124605;28;20123;-67
2022/11/03 02:22:55;;;;;;;;;;;;;;;18.67;33.47;99992.50;3124144;28;19933;-66
2022/11/03 02:24:32;;;;;;;;;;;;;;;18.65;33.46;99989.97;3124222;28;19986;-67
2022/11/03 02:26:06;;;;;;;;;;;;;;;18.62;33.66;99988.41;3124177;28;20437;-66
2022/11/03 02:27:37;;;;;;;;;;;;;;;18.64;33.21;99996.22;3127977;28;20628;-66
2022/11/03 02:29:08;;;;;;;;;;;;;;;18.66;33.43;99994.28;3128243;28;19986;-66
2022/11/03 02:30:42;;;;;;;;;;;;;;;18.63;33.57;99991.88;3136482;28;20538;-66
2022/11/03 02:32:20;;;;;;;;;;;;;;;18.64;33.56;99985.66;3129935;28;19924;-67
2022/11/03 02:33:54;;;;;;;;;;;;;;;18.65;33.57;99992.63;3128378;28;20329;-66
2022/11/03 02:35:28;;;;;;;;;;;;;;;18.63;33.44;99998.03;3128019;28;19931;-66
2022/11/03 02:37:04;;;;;;;;;;;;;;;18.64;33.25;99996.22;3128243;28;19925;-66
2022/11/03 02:38:39;;;;;;;;;;;;;;;18.67;33.31;99989.88;3129749;28;19947;-66
2022/11/03 02:40:13;;;;;;;;;;;;;;;18.69;33.35;99993.22;3134938;28;20013;-66
2022/11/03 02:41:47;;;;;;;;;;;;;;;18.71;33.25;99996.59;3135401;28;20384;-66
2022/11/03 02:43:20;;;;;;;;;;;;;;;18.67;33.12;99992.50;3128362;28;19928;-68
2022/11/03 02:44:53;;;;;;;;;;;;;;;18.74;33.14;100002.50;3128058;28;19929;-67
2022/11/03 02:46:25;;;;;;;;;;;;;;;18.78;33.10;99997.81;3138185;28;19936;-67
2022/11/03 02:47:58;;;;;;;;;;;;;;;18.82;32.79;100001.94;3128359;28;19924;-67
2022/11/03 02:49:30;;;;;;;;;;;;;;;18.80;33.06;100002.03;3139248;28;20344;-67
2022/11/03 02:51:03;;;;;;;;;;;;;;;18.82;32.79;99999.28;3130103;28;19924;-67
2022/11/03 02:52:36;;;;;;;;;;;;;;;18.81;32.95;99993.19;3132075;28;19924;-67
2022/11/03 02:54:11;;;;;;;;;;;;;;;18.81;32.96;99998.47;3131516;28;20365;-66
2022/11/03 02:55:49;;;;;;;;;;;;;;;18.86;32.85;99998.09;3128495;28;19986;-66
2022/11/03 02:57:28;;;;;;;;;;;;;;;18.85;32.87;99996.41;3127997;28;19928;-66
2022/11/03 02:59:01;;;;;;;;;;;;;;;18.83;32.59;100001.78;3127929;28;19924;-68
2022/11/03 03:00:35;;;;;;;;;;;;;;;18.89;32.65;99989.94;3128971;28;19934;-67
2022/11/03 03:02:09;;;;;;;;;;;;;;;18.92;32.75;99994.13;3134883;28;20441;-67
2022/11/03 03:03:43;;;;;;;;;;;;;;;18.94;32.63;99997.50;3126994;28;19948;-67
2022/11/03 03:05:17;;;;;;;;;;;;;;;18.93;32.57;99995.81;3126998;28;19924;-67
2022/11/03 03:06:50;;;;;;;;;;;;;;;18.96;32.47;99991.16;3127185;28;19925;-67
2022/11/03 03:08:23;;;;;;;;;;;;;;;18.97;32.45;100003.38;3133251;28;19928;-67
2022/11/03 03:09:58;;;;;;;;;;;;;;;19.03;32.47;99997.63;3127254;28;19990;-67
2022/11/03 03:11:39;;;;;;;;;;;;;;;19.06;32.26;99991.28;3126957;28;19961;-68
2022/11/03 03:13:14;;;;;;;;;;;;;;;19.07;32.24;99993.78;3135040;28;20467;-67
2022/11/03 03:14:47;;;;;;;;;;;;;;;19.04;32.45;99993.19;3135736;28;19931;-67
2022/11/03 03:16:24;;;;;;;;;;;;;;;19.16;32.16;100001.97;3133733;28;20409;-67
2022/11/03 03:18:01;;;;;;;;;;;;;;;19.11;32.27;99994.41;3127207;28;20512;-67
2022/11/03 03:19:43;;;;;;;;;;;;;;;19.09;32.05;99991.03;3126804;28;19931;-68
2022/11/03 03:21:17;;;;;;;;;;;;;;;19.10;32.28;99998.00;3127133;28;20019;-68
2022/11/03 03:22:51;;;;;;;;;;;;;;;19.11;32.04;100002.34;3128289;28;19925;-68
2022/11/03 03:24:27;;;;;;;;;;;;;;;19.13;32.12;99995.13;3127595;28;19935;-68
2022/11/03 03:26:02;;;;;;;;;;;;;;;19.14;32.02;100004.72;3128022;28;19925;-68
2022/11/03 03:27:34;;;;;;;;;;;;;;;19.15;32.15;100002.94;3127711;28;20372;-68
2022/11/03 03:29:11;;;;;;;;;;;;;;;19.17;32.30;100004.50;3128050;28;19925;-67
2022/11/03 03:30:45;;;;;;;;;;;;;;;19.12;32.26;100000.53;3136219;28;19954;-68
2022/11/03 03:32:19;;;;;;;;;;;;;;;19.10;32.32;100006.75;3135703;28;20459;-67
2022/11/03 03:33:52;;;;;;;;;;;;;;;19.09;32.35;100002.44;3130522;28;19925;-68
2022/11/03 03:35:25;;;;;;;;;;;;;;;19.11;32.22;100002.34;3127706;28;20564;-67
2022/11/03 03:36:57;;;;;;;;;;;;;;;19.14;32.13;100011.78;3130871;28;19924;-68
2022/11/03 03:38:33;;;;;;;;;;;;;;;19.12;32.24;100004.00;3134463;28;19932;-68
2022/11/03 03:40:06;;;;;;;;;;;;;;;19.08;32.07;100010.50;3134828;28;19982;-67
2022/11/03 03:41:38;;;;;;;;;;;;;;;19.08;32.21;100000.75;3127760;28;19932;-67
2022/11/03 03:43:11;;;;;;;;;;;;;;;19.07;32.28;100004.34;3127709;28;19990;-67
2022/11/03 03:44:46;;;;;;;;;;;;;;;19.03;32.23;100002.06;3127401;28;20382;-68
2022/11/03 03:46:19;;;;;;;;;;;;;;;19.01;32.34;100011.91;3137886;28;20315;-68
2022/11/03 03:47:51;;;;;;;;;;;;;;;19.03;32.28;100007.34;3138304;28;19924;-68
2022/11/03 03:49:23;;;;;;;;;;;;;;;19.07;32.37;100008.78;3137250;28;19947;-67
2022/11/03 03:50:55;;;;;;;;;;;;;;;19.07;32.20;100004.34;3139690;28;19939;-68
2022/11/03 03:52:27;;;;;;;;;;;;;;;19.07;32.19;100004.34;3130911;28;19930;-68
2022/11/03 03:53:59;;;;;;;;;;;;;;;19.02;32.48;100008.31;3128014;28;20326;-68
2022/11/03 03:55:34;;;;;;;;;;;;;;;19.00;32.47;100002.31;3127328;28;19924;-68
2022/11/03 03:57:07;;;;;;;;;;;;;;;18.99;32.35;100000.63;3127427;28;19925;-68
2022/11/03 03:58:38;;;;;;;;;;;;;;;18.99;32.34;100000.63;3127337;28;20706;-68
2022/11/03 04:00:14;;;;;;;;;;;;;;;18.98;32.40;99993.66;3127782;28;19982;-67
2022/11/03 04:01:46;;;;;;;;;;;;;;;18.97;32.50;99992.00;3137876;28;20062;-68
2022/11/03 04:03:19;;;;;;;;;;;;;;;18.99;32.44;99995.34;3127559;28;19928;-68
2022/11/03 04:04:50;;;;;;;;;;;;;;;18.94;32.44;100000.16;3127138;28;19932;-67
2022/11/03 04:06:22;;;;;;;;;;;;;;;18.94;32.55;99998.34;3127291;28;20023;-67
2022/11/03 04:07:52;;;;;;;;;;;;;;;18.95;32.44;100004.47;3131958;28;20298;-67
2022/11/03 04:09:24;;;;;;;;;;;;;;;18.97;32.22;100000.75;3138316;28;20056;-68
2022/11/03 04:23:41;;;;;;;;;;;;;;;18.83;32.67;100000.97;3132122;28;19921;-67
2022/11/03 04:25:13;;;;;;;;;;;;;;;18.81;32.58;100009.00;3132556;28;19954;-67
2022/11/03 04:26:44;;;;;;;;;;;;;;;18.75;32.71;100006.84;3132444;28;19927;-67
2022/11/03 04:28:15;;;;;;;;;;;;;;;18.81;32.62;100009.00;3132273;28;19925;-68
2022/11/03 04:29:46;;;;;;;;;;;;;;;18.82;32.57;100010.69;3133504;28;19920;-68
2022/11/03 04:31:18;;;;;;;;;;;;;;;18.85;32.61;100007.81;3142009;28;19924;-68
2022/11/03 04:32:51;;;;;;;;;;;;;;;18.90;32.63;100011.88;3132129;28;19982;-68
2022/11/03 04:34:24;;;;;;;;;;;;;;;18.90;32.56;100009.25;3146781;28;19924;-68
2022/11/03 04:35:57;;;;;;;;;;;;;;;18.88;32.33;100009.38;3135080;28;20026;-68
2022/11/03 04:37:29;;;;;;;;;;;;;;;18.90;32.41;100006.59;3134934;28;19990;-68
2022/11/03 04:39:01;;;;;;;;;;;;;;;18.92;32.38;100007.34;3140186;28;19974;-69
2022/11/03 04:40:32;;;;;;;;;;;;;;;18.89;32.39;100004.94;3137868;28;20679;-67
2022/11/03 04:42:13;;;;;;;;;;;;;;;18.91;32.37;100011.78;3135223;28;19955;-67
2022/11/03 04:43:45;;;;;;;;;;;;;;;18.92;32.55;100015.25;3134967;28;19920;-67
2022/11/03 04:45:21;;;;;;;;;;;;;;;18.92;32.38;100010.81;3136759;28;19952;-67
2022/11/03 04:46:54;;;;;;;;;;;;;;;18.95;32.52;100012.38;3144713;28;20404;-67
2022/11/03 04:48:28;;;;;;;;;;;;;;;18.94;32.39;100015.97;3136098;28;19920;-67
2022/11/03 04:50:00;;;;;;;;;;;;;;;18.88;32.52;100016.47;3147025;28;19928;-67
2022/11/03 04:51:34;;;;;;;;;;;;;;;18.88;32.56;100008.53;3134530;28;20328;-67
2022/11/03 04:53:10;;;;;;;;;;;;;;;18.92;32.45;100015.25;3134317;28;19934;-68
2022/11/03 04:54:41;;;;;;;;;;;;;;;18.89;32.55;100016.31;3134799;28;19931;-68
2022/11/03 04:56:15;;;;;;;;;;;;;;;18.93;32.48;100016.91;3134054;28;19925;-69
2022/11/03 04:57:46;;;;;;;;;;;;;;;18.95;32.57;100017.66;3134834;28;19920;-69
2022/11/03 04:59:18;;;;;;;;;;;;;;;18.95;32.50;100025.56;3134389;28;19925;-69
2022/11/03 05:00:51;;;;;;;;;;;;;;;18.91;32.46;100018.84;3145339;28;19920;-69
2022/11/03 05:02:23;;;;;;;;;;;;;;;18.90;32.60;100025.06;3144974;28;19928;-66
2022/11/03 05:03:55;;;;;;;;;;;;;;;18.90;32.42;100023.31;3134693;28;20378;-67
2022/11/03 05:05:27;;;;;;;;;;;;;;;18.94;32.67;100026.53;3140319;28;20357;-68
2022/11/03 05:06:58;;;;;;;;;;;;;;;18.97;32.55;100026.31;3135551;28;19928;-65
2022/11/03 05:08:30;;;;;;;;;;;;;;;19.00;32.52;100031.34;3141726;28;19920;-70
2022/11/03 05:10:01;;;;;;;;;;;;;;;19.00;32.44;100029.53;3138288;28;20368;-69
2022/11/03 05:11:35;;;;;;;;;;;;;;;18.98;32.34;100026.16;3134501;28;19998;-69
2022/11/03 05:13:11;;;;;;;;;;;;;;;18.94;32.63;100032.66;3134348;28;19928;-71
2022/11/03 05:14:43;;;;;;;;;;;;;;;18.95;32.56;100033.50;3138235;28;19950;-70
2022/11/03 05:16:14;;;;;;;;;;;;;;;18.93;32.75;100033.63;3134544;28;19999;-69
2022/11/03 05:17:46;;;;;;;;;;;;;;;18.97;32.70;100039.50;3135213;28;19928;-69
2022/11/03 05:19:22;;;;;;;;;;;;;;;19.04;32.61;100038.06;3134227;28;19924;-66
2022/11/03 05:20:55;;;;;;;;;;;;;;;19.07;32.73;100040.47;3134319;28;19921;-67
2022/11/03 05:22:29;;;;;;;;;;;;;;;19.06;32.45;100044.06;3133449;28;19924;-66
2022/11/03 05:24:02;;;;;;;;;;;;;;;19.07;32.63;100045.75;3133597;28;19921;-70
2022/11/03 05:25:39;;;;;;;;;;;;;;;19.07;32.50;100051.03;3133544;28;19960;-72
2022/11/03 05:27:15;;;;;;;;;;;;;;;19.06;32.33;100047.53;3133508;28;20306;-70
2022/11/03 05:28:47;;;;;;;;;;;;;;;19.04;32.44;100051.25;3133300;28;19921;-72
2022/11/03 05:30:19;;;;;;;;;;;;;;;19.01;32.51;100062.06;3139495;28;19921;-71
2022/11/03 05:31:52;;;;;;;;;;;;;;;19.00;32.73;100049.81;3133444;28;20033;-72
2022/11/03 05:33:28;;;;;;;;;;;;;;;18.99;32.69;100053.41;3133433;28;19928;-73
2022/11/03 05:35:01;;;;;;;;;;;;;;;19.05;32.42;100060.88;3133295;28;19928;-72
2022/11/03 05:36:33;;;;;;;;;;;;;;;19.06;32.52;100059.91;3132834;28;19978;-70
2022/11/03 05:38:10;;;;;;;;;;;;;;;19.10;32.63;100067.47;3137571;28;19920;-71
2022/11/03 05:39:43;;;;;;;;;;;;;;;19.14;32.35;100065.44;3145767;28;19970;-71
2022/11/03 05:41:16;;;;;;;;;;;;;;;19.18;32.25;100069.53;3134261;28;19920;-72
2022/11/03 05:42:50;;;;;;;;;;;;;;;19.22;32.30;100068.31;3133364;28;19968;-69
2022/11/03 05:44:24;;;;;;;;;;;;;;;19.27;32.18;100074.09;3133428;28;19982;-70
2022/11/03 05:45:58;;;;;;;;;;;;;;;19.29;32.14;100072.19;3135811;28;20489;-68
2022/11/03 05:47:32;;;;;;;;;;;;;;;19.33;32.20;100081.53;3133086;28;19921;-68
2022/11/03 05:49:07;;;;;;;;;;;;;;;19.39;32.09;100071.47;3137074;28;19924;-69
2022/11/03 05:50:39;;;;;;;;;;;;;;;19.45;32.08;100076.28;3148462;28;20471;-70
2022/11/03 05:52:12;;;;;;;;;;;;;;;19.51;31.91;100086.34;3132923;28;19990;-67
2022/11/03 05:53:45;;;;;;;;;;;;;;;19.55;31.95;100087.78;3132117;28;20398;-68
2022/11/03 05:55:22;;;;;;;;;;;;;;;19.60;31.93;100084.81;3133131;28;20045;-67
2022/11/03 05:56:56;;;;;;;;;;;;;;;19.65;31.70;100088.81;3139007;28;19924;-67
2022/11/03 05:58:28;;;;;;;;;;;;;;;19.69;31.81;100094.69;3134887;28;19925;-67
2022/11/03 05:59:59;;;;;;;;;;;;;;;19.75;31.93;100102.13;3138224;28;19921;-69
2022/11/03 06:01:32;;;;;;;;;;;;;;;19.77;31.94;100095.75;3135714;28;20357;-68
2022/11/03 06:03:05;;;;;;;;;;;;;;;19.84;31.73;100100.56;3133761;28;19925;-68
2022/11/03 06:04:39;;;;;;;;;;;;;;;19.93;31.60;100097.19;3133777;28;19944;-68
2022/11/03 06:06:16;;;;;;;;;;;;;;;20.03;31.23;100108.72;3133541;28;20044;-67
2022/11/03 06:07:48;;;;;;;;;;;;;;;20.27;31.38;100099.78;3135306;28;19963;-67
2022/11/03 06:09:21;;;;;;;;;;;;;;;20.54;31.06;100107.31;3136164;28;20558;-67
2022/11/03 06:10:53;;;;;;;;;;;;;;;20.80;31.04;100103.34;3133963;28;19924;-68
2022/11/03 06:12:26;;;;;;;;;;;;;;;21.12;30.50;100110.41;3133733;28;19920;-68
2022/11/03 06:13:58;;;;;;;;;;;;;;;21.48;30.24;100106.47;3135911;28;20015;-68
2022/11/03 06:15:29;;;;;;;;;;;;;;;21.95;29.83;100106.81;3146366;28;19920;-68
2022/11/03 06:17:04;;;;;;;;;;;;;;;22.44;29.41;100107.75;3134107;28;19920;-68
2022/11/03 06:18:37;;;;;;;;;;;;;;;22.98;28.64;100115.34;3132584;28;19948;-68
2022/11/03 06:20:16;;;;;;;;;;;;;;;23.50;28.29;100116.63;3132821;28;19925;-68
2022/11/03 06:21:50;;;;;;;;;;;;;;;24.03;27.77;100120.50;3132779;28;20523;-69
2022/11/03 06:23:22;;;;;;;;;;;;;;;24.59;27.15;100124.78;3133037;28;19928;-67
2022/11/03 06:24:56;;;;;;;;;;;;;;;25.00;26.90;100129.66;3133457;28;19932;-66
2022/11/03 06:26:28;;;;;;;;;;;;;;;25.37;26.44;100132.09;3134475;28;19924;-66
2022/11/03 06:28:02;;;;;;;;;;;;;;;25.79;26.35;100139.34;3133773;28;19927;-68
2022/11/03 06:29:33;;;;;;;;;;;;;;;26.25;25.75;100147.91;3132928;28;19920;-67
2022/11/03 06:31:07;;;;;;;;;;;;;;;26.83;25.73;100146.19;3133202;28;19921;-66
2022/11/03 06:32:37;;;;;;;;;;;;;;;27.47;24.96;100155.22;3134253;28;19931;-71
2022/11/03 06:34:18;;;;;;;;;;;;;;;28.09;24.76;100157.22;3133292;28;19921;-70
2022/11/03 06:35:51;;;;;;;;;;;;;;;28.79;23.97;100161.72;3133453;28;19920;-69
2022/11/03 06:37:25;;;;;;;;;;;;;;;28.99;22.94;100162.06;3133484;28;19925;-72
2022/11/03 06:39:00;;;;;;;;;;;;;;;28.81;22.87;100167.75;3137094;28;19993;-71
2022/11/03 06:40:36;;;;;;;;;;;;;;;28.78;22.98;100176.09;3133071;28;19990;-73
2022/11/03 06:42:14;;;;;;;;;;;;;;;28.96;23.08;100165.13;3133534;28;19987;-71
2022/11/03 06:43:45;;;;;;;;;;;;;;;29.40;22.82;100175.13;3145245;28;19921;-69
2022/11/03 06:45:19;;;;;;;;;;;;;;;29.61;22.20;100177.94;3142623;28;19928;-70
2022/11/03 06:46:51;;;;;;;;;;;;;;;29.51;21.96;100171.19;3133638;28;20314;-67
2022/11/03 06:48:24;;;;;;;;;;;;;;;29.43;21.89;100174.75;3133300;28;19925;-68
2022/11/03 06:49:57;;;;;;;;;;;;;;;29.43;22.13;100172.06;3133782;28;20329;-68
2022/11/03 06:51:30;;;;;;;;;;;;;;;29.30;21.57;100183.44;3133382;28;19924;-71
2022/11/03 06:53:03;;;;;;;;;;;;;;;28.72;21.82;100188.41;3138946;28;20004;-68
2022/11/03 06:54:35;;;;;;;;;;;;;;;28.16;22.69;100185.00;3145001;28;19927;-69
2022/11/03 06:56:09;;;;;;;;;;;;;;;28.02;22.60;100181.19;3135959;28;19920;-69
2022/11/03 06:57:42;;;;;;;;;;;;;;;28.26;22.77;100187.44;3136928;28;19931;-68
2022/11/03 06:59:15;;;;;;;;;;;;;;;28.65;22.63;100182.06;3145032;28;20306;-69
2022/11/03 07:00:47;;;;;;;;;;;;;;;29.10;22.43;100183.09;3137432;28;19921;-69
2022/11/03 07:02:33;;;;;;;;;;;;;;;29.19;21.99;100184.69;3133054;28;19928;-69
2022/11/03 07:04:13;;;;;;;;;;;;;;;29.25;21.76;100184.00;3133207;28;20454;-69
2022/11/03 07:05:45;;;;;;;;;;;;;;;29.53;21.76;100186.06;3133205;28;19924;-69
2022/11/03 07:07:16;;;;;;;;;;;;;;;29.76;21.26;100193.22;3133060;28;19921;-69
2022/11/03 07:08:51;;;;;;;;;;;;;;;29.73;21.29;100198.97;3136942;28;19925;-69
2022/11/03 07:10:24;;;;;;;;;;;;;;;29.58;21.37;100198.94;3133103;28;19932;-68
2022/11/03 07:11:57;;;;;;;;;;;;;;;29.43;21.28;100202.44;3133144;28;19920;-66
2022/11/03 07:13:31;;;;;;;;;;;;;;;29.33;21.47;100201.03;3143773;28;19925;-66
2022/11/03 07:15:04;;;;;;;;;;;;;;;29.28;21.47;100201.56;3138802;28;19925;-67
2022/11/03 07:16:37;;;;;;;;;;;;;;;29.43;21.57;100198.91;3136648;28;19924;-64
2022/11/03 07:18:15;;;;;;;;;;;;;;;29.63;21.37;100208.13;3140149;28;19920;-62
2022/11/03 07:19:47;;;;;;;;;;;;;;;29.81;20.84;100206.94;3133013;28;19928;-63
2022/11/03 07:21:24;;;;;;;;;;;;;;;29.77;20.70;100211.84;3133016;28;19978;-64
2022/11/03 07:23:00;;;;;;;;;;;;;;;29.67;20.84;100205.94;3134024;28;19921;-71
2022/11/03 07:24:34;;;;;;;;;;;;;;;29.88;20.68;100205.22;3138670;28;20014;-74
2022/11/03 07:26:08;;;;;;;;;;;;;;;30.19;20.81;100198.78;3141443;28;19920;-71
2022/11/03 07:27:40;;;;;;;;;;;;;;;30.29;20.57;100210.09;3135973;28;19924;-73
2022/11/03 07:29:18;;;;;;;;;;;;;;;30.45;20.42;100207.22;3134309;28;20455;-72
2022/11/03 07:30:49;;;;;;;;;;;;;;;30.53;19.98;100207.09;3133017;28;20340;-71
2022/11/03 07:32:23;;;;;;;;;;;;;;;30.58;20.32;100199.28;3132706;28;19943;-75
2022/11/03 07:33:56;;;;;;;;;;;;;;;30.65;19.95;100206.63;3133393;28;19928;-74
2022/11/03 07:35:30;;;;;;;;;;;;;;;30.53;20.28;100209.78;3132675;28;19975;-73
2022/11/03 07:37:02;;;;;;;;;;;;;;;30.51;20.03;100209.13;3137147;28;19921;-71
2022/11/03 07:38:34;;;;;;;;;;;;;;;30.78;19.98;100210.28;3133706;28;19925;-81
2022/11/03 07:40:12;;;;;;;;;;;;;;;31.03;19.96;100218.81;3144649;28;19927;-80
2022/11/03 07:41:44;;;;;;;;;;;;;;;30.98;19.56;100207.81;3146576;28;20451;-80
2022/11/03 07:43:17;;;;;;;;;;;;;;;30.92;19.80;100199.69;3134492;28;19927;-78
2022/11/03 07:44:49;;;;;;;;;;;;;;;30.77;19.74;100210.47;3134077;28;19956;-72
2022/11/03 07:46:22;;;;;;;;;;;;;;;30.53;19.64;100196.34;3132766;28;19924;-70
2022/11/03 07:47:53;;;;;;;;;;;;;;;30.27;19.78;100199.56;3133084;28;20022;-71
2022/11/03 07:49:27;;;;;;;;;;;;;;;29.93;20.27;100195.59;3133170;28;20463;-76
2022/11/03 07:51:00;;;;;;;;;;;;;;;29.73;20.58;100194.47;3133407;28;19951;-72
2022/11/03 07:52:32;;;;;;;;;;;;;;;29.82;20.75;100192.53;3133257;28;19920;-72
2022/11/03 07:54:05;;;;;;;;;;;;;;;29.89;20.19;100194.28;3137196;28;20310;-70
2022/11/03 07:55:38;;;;;;;;;;;;;;;30.29;20.17;100202.91;3133235;28;19990;-70
2022/11/03 07:57:13;;;;;;;;;;;;;;;30.16;20.54;100195.44;3141608;28;19920;-69
2022/11/03 07:58:45;;;;;;;;;;;;;;;30.20;20.20;100197.75;3137436;28;19974;-67
2022/11/03 08:00:20;;;;;;;;;;;;;;;30.29;20.47;100191.28;3133651;28;19975;-65
2022/11/03 08:01:53;;;;;;;;;;;;;;;30.34;20.23;100191.56;3137022;28;19921;-67
2022/11/03 08:03:31;;;;;;;;;;;;;;;30.04;20.53;100188.88;3139976;28;19978;-67
2022/11/03 08:05:02;;;;;;;;;;;;;;;29.60;20.51;100187.00;3135130;28;20021;-74
2022/11/03 08:06:34;;;;;;;;;;;;;;;29.25;21.28;100184.00;3131736;28;19955;-73
2022/11/03 08:08:05;;;;;;;;;;;;;;;29.12;21.17;100185.63;3134706;28;19954;-73
2022/11/03 08:09:37;;;;;;;;;;;;;;;29.11;21.52;100184.78;3144459;28;19920;-73
2022/11/03 08:11:10;;;;;;;;;;;;;;;29.12;21.23;100186.44;3141057;28;20286;-75
2022/11/03 08:12:42;;;;;;;;;;;;;;;29.18;21.43;100187.56;3133824;28;19921;-76